Airfield :
LOGIN :

Register | Disclaimer

   EN    FR    IT 

 










Legend :    VFR   Marginal VFR   IFR   Intensive IFR   Very Intensive IFR
Visi :
Ceiling :
>= 8 km
>= 3000ft
5 to 8 km
1000 to 3000 ft
1500m to 5 km
500 to 1000 ft
800 to 1500m
200 to 500 ft
< 800m
< 200 ft
Symbols :   Thunderstorms  Fog  Heavy snow  Heavy precipitations  Wind > 20 kt
SIGMETs :     Misc.  Thunderstorms  Icing  Turbulence  Mountain Waves  Volcanic Ashes






- Airport Elevation : 20 ft
- IATA code : LSI


EGPB - Sumburgh

CURRENT METAR :
  • 280050Z AUTO 18010KT 9999 OVC007/// 09/08 Q1011

EXPIRED METARs :
  • 280020Z AUTO 19008KT 9999 OVC010/// 09/07 Q1011
  • 272350Z AUTO 18007KT 9999 OVC007/// 09/07 Q1012
  • 272320Z AUTO 18007KT 9999 OVC011/// 09/07 Q1012
  • 272250Z AUTO 20005KT 9999 OVC010/// 09/07 Q1012
  • 272220Z AUTO 17004KT 140V210 9999 OVC008/// 09/08 Q1013

TAF TAF EGPB
Valid from the 28 at 00:00 until the 28 at 09:00 UTC


272257Z 2800/2809 18009KT 9999 FEW010 BKN020
PROB30
TEMPO 2800/2809 8000 BKN008
BECMG 2806/2809 16022KT



MET'MAP, your aeronautical weather chart ! - Copyright ORBIFLY December 2007 - Disclaimer

ORBIFLY MET'MAP TEAM :

Programming & Development : Alexandra Zaïnal
Concept & original design : Baudouin d'Aumeries
Assistance for programming : Marc-Olivier Méhu
Technical & hardware support : Manuel Goepfert

Contact : metmap@orbifly.com




SOURCES & CREDITS :

   NOAA